Terminal Aerodrome Forecast
Issued by NWS Wilmington, OH

Current Version | Previous Version | Text Only | Print | Product List | Glossary Off
Versions: 1 2 3 4 5 6 7 8 9 10 11 12 13 14 15 16 17 18 19 20 21 22 23 24 25

000
FTUS41 KILN 141400 AAB
TAFDAY
TAF AMD
KDAY 141429Z 1414/1512 21018G32KT P6SM -SHRA BKN025 OVC050
     FM141700 23018G26KT P6SM VCTS BKN025CB OVC040
     FM142300 32014G22KT P6SM -RA SCT010 OVC022
     FM150200 33016G28KT 5SM -RA BR OVC008
     FM150700 34018G25KT 3SM -SN OVC006=

USA.gov is the U.S. government's official web portal to all federal, state and local government web resources and services.